ADDS METAR Data INFO
IDs: Format: Raw Decoded Include TAF

Data at: 1410 UTC 12 Dec 2017

KPOF 121353Z AUTO 33012G17KT 10SM CLR 03/M04 A3019 RMK AO2 SLP226 T00331044
KPOF 121253Z AUTO 32013G23KT 10SM CLR 03/M04 A3017 RMK AO2 SLP218 T00331044
KPOF 121153Z AUTO 32014G19KT 10SM OVC038 05/M04 A3014 RMK AO2 PK WND 32026/1136 SLP209 T00501039 10100 20050 53029
KPOF 121053Z AUTO 33014G26KT 10SM FEW036 OVC046 07/M03 A3010 RMK AO2 PK WND 33027/1036 SLP194 T00671028
KPOF 120953Z AUTO 35014G19KT 10SM BKN040 OVC048 08/00 A3007 RMK AO2 SLP184 T00780000
KPOF 120853Z AUTO 33013KT 10SM OVC047 09/00 A3005 RMK AO2 SLP177 T00890000 51014
KPOF 120753Z AUTO 33012KT 10SM OVC050 09/01 A3005 RMK AO2 SLP176 T00890006
KPOF 120653Z AUTO 34012KT 10SM OVC055 09/01 A3003 RMK AO2 PK WND 35027/0607 SLP169 T00940006
KPOF 120553Z AUTO 33018G25KT 10SM OVC060 10/00 A3001 RMK AO2 SLP163 T01000000 10139 20100 402001028 53011
KPOF 120453Z AUTO 31009KT 10SM OVC065 10/M02 A3000 RMK AO2 SLP158 T01001017
KPOF 120353Z AUTO 30009G16KT 10SM OVC075 11/M02 A2999 RMK AO2 PK WND 31026/0302 SLP158 T01061022
KPOF 120253Z AUTO 31014G24KT 10SM CLR 11/M03 A2998 RMK AO2 PK WND 29029/0214 SLP154 T01111033 51023
KPOF 120153Z AUTO 29010G15KT 10SM CLR 12/M05 A2996 RMK AO2 SLP149 T01171050
KPOF 120053Z AUTO 30010G21KT 10SM CLR 13/M05 A2994 RMK AO2 PK WND 31031/0008 SLP143 T01281050
KPOF 112353Z AUTO 31013G29KT 10SM CLR 14/M07 A2991 RMK AO2 PK WND 29035/2323 SLP131 T01391067 10200 20139 53036
KPOF 112253Z AUTO 29019G32KT 10SM CLR 18/M09 A2986 RMK AO2 PK WND 29032/2246 SLP112 T01781089
KPOF 112153Z AUTO 27011G16KT 10SM CLR 19/M06 A2981 RMK AO2 SLP096 T01941056
KPOF 112053Z AUTO 22013KT 10SM CLR 18/02 A2980 RMK AO2 SLP094 T01780017 56041
KPOF 111953Z AUTO 20015KT 10SM CLR 17/02 A2981 RMK AO2 SLP098 T01720022
KPOF 111853Z AUTO 21014KT 10SM CLR 16/00 A2987 RMK AO2 PK WND 21026/1827 SLP116 T01610000
KPOF 111753Z AUTO 21017G26KT 10SM CLR 15/M01 A2992 RMK AO2 PK WND 21026/1747 SLP136 T01501006 10150 21028 58054
KPOF 111653Z AUTO 22013KT 10SM CLR 11/00 A2999 RMK AO2 SLP160 T01110000
KPOF 111553Z AUTO 21010KT 10SM CLR 07/M01 A3005 RMK AO2 SLP180 T00721006
KPOF 111453Z AUTO 22005KT 10SM CLR 04/M02 A3008 RMK AO2 SLP191 T00391017 56010
KPOF 111353Z AUTO 23005KT 10SM CLR 01/M03 A3009 RMK AO2 SLP193 T00061028
KPOF 111253Z AUTO 00000KT 9SM CLR M02/M04 A3010 RMK AO2 SLP199 T10221039
KPOF 111153Z AUTO 00000KT 10SM CLR M02/M04 A3011 RMK AO2 SLP202 T10171039 11006 21028 56012
KPOF 111053Z AUTO 33004KT 9SM CLR M03/M04 A3012 RMK AO2 SLP204 T10281039
KPOF 110953Z AUTO 00000KT 10SM CLR M01/M03 A3013 RMK AO2 SLP206 T10111033
KPOF 110853Z AUTO 00000KT 8SM CLR M02/M03 A3015 RMK AO2 SLP213 T10171033 56006
KPOF 110753Z AUTO 00000KT 8SM CLR M02/M03 A3015 RMK AO2 SLP214 T10171033
KPOF 110653Z AUTO 00000KT 10SM CLR M02/M03 A3015 RMK AO2 SLP213 T10171033
KPOF 110553Z AUTO 34004KT 10SM CLR M01/M03 A3016 RMK AO2 SLP218 T10111028 10083 21011 401171061 50003
KPOF 110453Z AUTO 24003KT 8SM CLR 01/M02 A3016 RMK AO2 SLP220 T00061022
KPOF 110353Z AUTO 00000KT 10SM CLR 01/M02 A3016 RMK AO2 SLP218 T00111017
KPOF 110253Z AUTO 27003KT 10SM CLR 03/M02 A3015 RMK AO2 SLP216 T00331017 53017